createdAt,value
2023-05-20T19:44:26.376Z,17.71
2023-05-20T19:45:26.306Z,17.66
2023-05-20T19:46:26.292Z,17.65
2023-05-20T19:47:26.307Z,17.60
2023-05-20T19:48:26.162Z,17.53
2023-05-20T19:49:26.117Z,17.52
2023-05-20T19:50:26.069Z,17.52
2023-05-20T19:51:26.025Z,17.53
2023-05-20T19:52:25.983Z,17.42
2023-05-20T19:53:25.943Z,17.50
2023-05-20T19:54:25.899Z,17.46
2023-05-20T19:55:25.848Z,17.42
2023-05-20T19:56:25.809Z,17.37
2023-05-20T19:57:25.763Z,17.32
2023-05-20T19:58:25.923Z,17.24
2023-05-20T19:59:25.675Z,17.46
2023-05-20T20:00:25.668Z,17.39
2023-05-20T20:01:25.668Z,17.38
2023-05-20T20:02:25.585Z,17.37
2023-05-20T20:03:25.514Z,17.35
2023-05-20T20:04:25.488Z,17.32
2023-05-20T20:05:25.456Z,17.30
2023-05-20T20:06:25.378Z,17.27
2023-05-20T20:07:25.333Z,17.30
2023-05-20T20:08:25.328Z,17.24
2023-05-20T20:09:25.257Z,17.30
2023-05-20T20:10:25.218Z,17.22
2023-05-20T20:11:25.165Z,17.27
2023-05-20T20:12:25.127Z,17.27
2023-05-20T20:13:25.096Z,17.22
2023-05-20T20:14:25.044Z,17.22
2023-05-20T20:15:25.027Z,17.14
2023-05-20T20:16:25.027Z,17.17
2023-05-20T20:17:24.955Z,17.13
2023-05-20T20:18:24.877Z,17.14
2023-05-20T20:19:24.860Z,17.05
2023-05-20T20:20:24.789Z,17.07
2023-05-20T20:21:24.750Z,17.16
2023-05-20T20:22:24.712Z,17.07
2023-05-20T20:23:24.670Z,17.09
2023-05-20T20:24:24.640Z,17.10
2023-05-20T20:25:24.585Z,17.09
2023-05-20T20:26:24.546Z,16.95
2023-05-20T20:27:24.497Z,17.01
2023-05-20T20:28:24.460Z,16.99
2023-05-20T20:29:24.413Z,16.99
2023-05-20T20:30:24.415Z,16.99
2023-05-20T20:31:24.333Z,16.87
2023-05-20T20:32:24.444Z,16.91
2023-05-20T20:33:24.279Z,16.86
2023-05-20T20:34:24.219Z,16.94
2023-05-20T20:35:24.166Z,17.02
2023-05-20T20:36:24.122Z,16.84
2023-05-20T20:37:24.077Z,17.04
2023-05-20T20:38:24.037Z,16.86
2023-05-20T20:39:23.995Z,16.84
2023-05-20T20:40:23.951Z,16.84
2023-05-20T20:41:23.910Z,16.87
2023-05-20T20:42:23.874Z,16.91
2023-05-20T20:43:23.833Z,16.82
2023-05-20T20:44:23.787Z,16.86
2023-05-20T20:45:23.753Z,16.83
2023-05-20T20:46:23.747Z,16.84
2023-05-20T20:47:23.723Z,16.84
2023-05-20T20:48:23.639Z,16.80
2023-05-20T20:49:25.239Z,16.73
2023-05-20T20:50:23.541Z,16.74
2023-05-20T20:51:23.497Z,16.77
2023-05-20T20:52:23.478Z,16.77
2023-05-20T20:53:23.449Z,16.73
2023-05-20T20:54:23.415Z,16.72
2023-05-20T20:55:23.347Z,16.69
2023-05-20T20:56:23.297Z,16.59
2023-05-20T20:57:23.250Z,16.65
2023-05-20T20:58:23.204Z,16.59
2023-05-20T20:59:23.162Z,16.64
2023-05-20T21:00:23.123Z,16.55
2023-05-20T21:01:23.123Z,16.64
2023-05-20T21:02:23.053Z,16.55
2023-05-20T21:03:22.996Z,16.51
2023-05-20T21:04:22.988Z,16.47
2023-05-20T21:05:22.911Z,16.51
2023-05-20T21:06:22.902Z,16.50
2023-05-20T21:07:22.828Z,16.47
2023-05-20T21:08:22.794Z,16.49
2023-05-20T21:09:22.739Z,16.49
2023-05-20T21:10:22.698Z,16.40
2023-05-20T21:11:22.667Z,16.43
2023-05-20T21:12:22.625Z,16.44
2023-05-20T21:13:22.572Z,16.43
2023-05-20T21:14:22.534Z,16.43
2023-05-20T21:15:22.490Z,16.41
2023-05-20T21:16:22.512Z,16.41
2023-05-20T21:17:22.443Z,16.37
2023-05-20T21:18:22.369Z,16.43
2023-05-20T21:19:22.397Z,16.39
2023-05-20T21:20:22.307Z,16.46
2023-05-20T21:21:22.254Z,16.37
2023-05-20T21:22:22.210Z,16.40
2023-05-20T21:23:22.163Z,16.32
2023-05-20T21:24:22.120Z,16.43
2023-05-20T21:25:22.088Z,16.34
2023-05-20T21:26:22.028Z,16.39
2023-05-20T21:27:22.035Z,16.31
2023-05-20T21:28:21.960Z,16.36
2023-05-20T21:29:21.902Z,16.32
2023-05-20T21:30:21.872Z,16.36
2023-05-20T21:31:21.843Z,16.34
2023-05-20T21:32:21.780Z,16.22
2023-05-20T21:33:21.745Z,16.28
2023-05-20T21:34:21.693Z,16.34
2023-05-20T21:35:21.657Z,16.25
2023-05-20T21:36:21.635Z,16.24
2023-05-20T21:37:21.575Z,16.17
